Terminal Aerodrome Forecast
Issued by NWS Charleston, WV

Home | Current Version | Previous Version | Text Only | Print | Product List | Glossary On
Versions: 1 2 3 4 5 6 7 8 9 10 11 12 13 14 15 16 17 18 19 20 21 22 23 24 25 26 27
000
FTUS41 KRLX 230249 AAA
TAFEKN
TAF AMD
KEKN 230249Z 2303/2324 26005KT P6SM SCT080
     FM230400 20003KT 5SM -SHRA VCTS BKN025CB
     FM230600 22003KT 5SM BR BKN008
     FM230900 29003KT 1SM BR BKN003
     FM231300 31005KT P6SM BKN008
     FM231500 32005KT P6SM BKN020
     FM231700 32005KT P6SM SCT030=

USA.gov is the U.S. government's official web portal to all federal, state and local government web resources and services.